createdAt,value
2023-02-27T00:00:27.075Z,2.13
2023-02-27T00:00:58.965Z,1.63
2023-02-27T00:01:30.775Z,1.20
2023-02-27T00:02:02.250Z,1.30
2023-02-27T00:02:33.597Z,1.38
2023-02-27T00:03:04.927Z,1.73
2023-02-27T00:03:36.316Z,1.40
2023-02-27T00:04:07.784Z,1.58
2023-02-27T00:04:39.145Z,1.48
2023-02-27T00:05:11.345Z,1.65
2023-02-27T00:05:42.686Z,1.40
2023-02-27T00:06:13.995Z,1.65
2023-02-27T00:06:45.307Z,1.23
2023-02-27T00:07:16.930Z,1.17
2023-02-27T00:07:48.258Z,1.40
2023-02-27T00:08:19.600Z,1.73
2023-02-27T00:08:50.971Z,1.20
2023-02-27T00:09:22.359Z,1.77
2023-02-27T00:09:53.710Z,1.80
2023-02-27T00:10:25.092Z,1.60
2023-02-27T00:10:56.429Z,1.67
2023-02-27T00:11:28.113Z,1.88
2023-02-27T00:11:59.765Z,1.40
2023-02-27T00:12:31.511Z,2.28
2023-02-27T00:13:02.914Z,1.13
2023-02-27T00:13:34.954Z,1.67
2023-02-27T00:14:06.300Z,1.67
2023-02-27T00:14:37.719Z,1.55
2023-02-27T00:15:16.436Z,1.98
2023-02-27T00:15:48.665Z,2.30
2023-02-27T00:16:20.094Z,1.90
2023-02-27T00:16:51.504Z,1.70
2023-02-27T00:17:22.912Z,1.50
2023-02-27T00:17:54.275Z,2.00
2023-02-27T00:18:25.630Z,1.25
2023-02-27T00:18:56.990Z,1.23
2023-02-27T00:19:28.342Z,0.70
2023-02-27T00:19:59.923Z,1.63
2023-02-27T00:20:31.244Z,1.90
2023-02-27T00:21:02.656Z,1.50
2023-02-27T00:21:36.661Z,1.35
2023-02-27T00:22:08.137Z,1.48
2023-02-27T00:22:40.173Z,1.98
2023-02-27T00:23:11.489Z,1.60
2023-02-27T00:23:42.811Z,1.27
2023-02-27T00:24:14.218Z,1.52
2023-02-27T00:24:45.797Z,1.67
2023-02-27T00:25:17.799Z,2.70
2023-02-27T00:25:49.145Z,1.98
2023-02-27T00:26:20.484Z,1.50
2023-02-27T00:26:51.823Z,1.92
2023-02-27T00:27:23.263Z,2.07
2023-02-27T00:27:54.611Z,1.58
2023-02-27T00:28:25.937Z,1.85
2023-02-27T00:28:57.455Z,1.50
2023-02-27T00:29:28.784Z,1.98
2023-02-27T00:30:00.593Z,1.92
2023-02-27T00:30:31.995Z,1.73
2023-02-27T00:31:03.472Z,1.63
2023-02-27T00:31:35.143Z,1.45
2023-02-27T00:32:06.581Z,1.23
2023-02-27T00:32:38.270Z,0.93
2023-02-27T00:33:09.610Z,1.65
2023-02-27T00:33:40.954Z,1.45
2023-02-27T00:34:12.289Z,1.65
2023-02-27T00:34:43.618Z,1.67
2023-02-27T00:35:14.978Z,1.73
2023-02-27T00:35:54.255Z,2.00
2023-02-27T00:36:25.617Z,1.55
2023-02-27T00:36:56.974Z,1.50
2023-02-27T00:37:28.306Z,2.42
2023-02-27T00:37:59.646Z,2.03
2023-02-27T00:38:31.169Z,1.92
2023-02-27T00:39:02.839Z,1.92
2023-02-27T00:39:34.229Z,1.27
2023-02-27T00:40:06.157Z,1.42
2023-02-27T00:40:37.695Z,2.25
2023-02-27T00:41:09.133Z,1.60
2023-02-27T00:41:40.466Z,1.70
2023-02-27T00:42:11.879Z,1.65
2023-02-27T00:42:43.204Z,1.52
2023-02-27T00:43:14.539Z,2.40
2023-02-27T00:43:45.878Z,2.20
2023-02-27T00:44:17.274Z,2.03
2023-02-27T00:44:48.649Z,0.95
2023-02-27T00:45:20.180Z,1.65
2023-02-27T00:45:51.515Z,1.55
2023-02-27T00:46:23.041Z,1.63
2023-02-27T00:46:54.415Z,1.20
2023-02-27T00:47:25.855Z,1.55
2023-02-27T00:47:57.166Z,1.77
2023-02-27T00:48:28.653Z,1.13
2023-02-27T00:48:59.980Z,1.48
2023-02-27T00:49:31.308Z,1.55
2023-02-27T00:50:02.921Z,1.30
2023-02-27T00:50:34.260Z,0.70
2023-02-27T00:51:05.737Z,0.98
2023-02-27T00:51:37.086Z,2.20
2023-02-27T00:52:08.443Z,0.90
2023-02-27T00:52:40.204Z,1.02
2023-02-27T00:53:11.537Z,1.33
2023-02-27T00:53:42.870Z,1.30
2023-02-27T00:54:14.199Z,1.10
2023-02-27T00:54:45.504Z,1.08
2023-02-27T00:55:16.943Z,1.17
2023-02-27T00:55:48.994Z,1.50
2023-02-27T00:56:20.318Z,1.10
2023-02-27T00:56:51.633Z,1.35
2023-02-27T00:57:23.001Z,0.88
2023-02-27T00:57:54.438Z,1.20
2023-02-27T00:58:25.771Z,1.65
2023-02-27T00:58:57.077Z,1.08
2023-02-27T00:59:28.377Z,0.82
2023-02-27T00:59:59.729Z,1.27
2023-02-27T01:00:31.145Z,1.38
2023-02-27T01:01:02.529Z,1.10
2023-02-27T01:01:33.892Z,1.13
2023-02-27T01:02:05.317Z,1.42
2023-02-27T01:02:36.739Z,1.20
2023-02-27T01:03:08.134Z,1.33
2023-02-27T01:03:39.459Z,1.10
2023-02-27T01:04:10.818Z,1.27
2023-02-27T01:04:42.212Z,1.60
2023-02-27T01:05:14.124Z,1.10
2023-02-27T01:05:45.461Z,1.13
2023-02-27T01:06:16.845Z,1.13
2023-02-27T01:06:48.212Z,1.35
2023-02-27T01:07:19.592Z,1.30
2023-02-27T01:07:51.017Z,1.50
2023-02-27T01:08:22.442Z,1.33
2023-02-27T01:08:53.791Z,1.42
2023-02-27T01:09:25.152Z,1.60
2023-02-27T01:09:56.485Z,0.95
2023-02-27T01:10:27.834Z,1.48
2023-02-27T01:10:59.313Z,1.20
2023-02-27T01:11:30.675Z,1.20
2023-02-27T01:12:02.153Z,0.90
2023-02-27T01:12:33.521Z,1.58
2023-02-27T01:13:04.849Z,1.58
2023-02-27T01:13:36.180Z,1.25
2023-02-27T01:14:07.511Z,2.15
2023-02-27T01:14:38.848Z,1.38
2023-02-27T01:15:10.839Z,1.70
2023-02-27T01:15:42.117Z,1.25
2023-02-27T01:16:13.769Z,1.30
2023-02-27T01:16:45.376Z,1.38
2023-02-27T01:17:16.800Z,1.50
2023-02-27T01:17:48.158Z,1.15
2023-02-27T01:18:19.568Z,1.13
2023-02-27T01:18:50.935Z,1.58
2023-02-27T01:19:22.591Z,1.45
2023-02-27T01:19:53.901Z,1.15
2023-02-27T01:20:25.285Z,1.20
2023-02-27T01:20:56.621Z,0.70
2023-02-27T01:21:28.271Z,1.30
2023-02-27T01:21:59.787Z,1.35
2023-02-27T01:22:31.156Z,0.85
2023-02-27T01:23:02.660Z,1.55
2023-02-27T01:23:34.055Z,1.58
2023-02-27T01:24:05.508Z,1.50
2023-02-27T01:24:36.952Z,1.40
2023-02-27T01:25:08.747Z,1.33
2023-02-27T01:25:40.082Z,1.88
2023-02-27T01:26:11.426Z,1.77
2023-02-27T01:26:42.749Z,1.25
2023-02-27T01:27:14.128Z,1.45
2023-02-27T01:27:45.437Z,1.83
2023-02-27T01:28:16.796Z,1.60
2023-02-27T01:28:48.147Z,1.40
2023-02-27T01:29:19.807Z,1.95
2023-02-27T01:29:51.134Z,1.83
2023-02-27T01:30:22.492Z,1.55
2023-02-27T01:30:53.961Z,1.20
2023-02-27T01:31:25.674Z,1.73
2023-02-27T01:31:57.216Z,1.70
2023-02-27T01:32:28.727Z,1.50
2023-02-27T01:33:00.156Z,1.60
2023-02-27T01:33:31.499Z,1.73
2023-02-27T01:34:02.872Z,1.40
2023-02-27T01:34:34.444Z,1.25
2023-02-27T01:35:06.099Z,1.23
2023-02-27T01:35:37.508Z,1.80
2023-02-27T01:36:09.104Z,1.65
2023-02-27T01:36:40.432Z,1.70
2023-02-27T01:37:11.924Z,1.35
2023-02-27T01:37:43.293Z,1.58
2023-02-27T01:38:14.626Z,1.50
2023-02-27T01:38:46.133Z,1.45
2023-02-27T01:39:17.460Z,1.50
2023-02-27T01:39:48.785Z,1.63
2023-02-27T01:40:20.298Z,1.83
2023-02-27T01:40:51.622Z,1.92
2023-02-27T01:41:23.038Z,1.77
2023-02-27T01:41:54.460Z,2.03
2023-02-27T01:42:26.966Z,1.60
2023-02-27T01:42:58.285Z,1.20
2023-02-27T01:43:29.766Z,1.30
2023-02-27T01:44:03.145Z,1.92
2023-02-27T01:44:54.424Z,1.67
2023-02-27T01:45:30.463Z,1.50
2023-02-27T01:46:01.885Z,2.13
2023-02-27T01:46:33.844Z,1.63
2023-02-27T01:47:05.440Z,2.10
2023-02-27T01:47:38.632Z,1.15
2023-02-27T01:48:16.160Z,1.63
2023-02-27T01:48:47.524Z,1.52
2023-02-27T01:49:20.420Z,1.48
2023-02-27T01:49:51.775Z,1.60
2023-02-27T01:50:23.671Z,1.45
2023-02-27T01:50:58.171Z,1.80
2023-02-27T01:51:34.504Z,1.52
2023-02-27T01:52:07.429Z,1.53
2023-02-27T01:52:40.201Z,1.42
2023-02-27T01:53:11.541Z,1.80
2023-02-27T01:53:43.906Z,2.40
2023-02-27T01:54:17.576Z,1.90
2023-02-27T01:54:48.943Z,1.60
2023-02-27T01:55:21.172Z,1.70
2023-02-27T01:55:58.198Z,1.55
2023-02-27T01:56:30.803Z,1.75
2023-02-27T01:57:02.362Z,1.67
2023-02-27T01:57:33.814Z,1.40
2023-02-27T01:58:07.418Z,2.17
2023-02-27T01:58:38.885Z,1.92
2023-02-27T01:59:10.867Z,1.80
2023-02-27T01:59:42.570Z,1.90
2023-02-27T02:00:14.429Z,1.63
2023-02-27T02:00:46.236Z,1.58
2023-02-27T02:01:18.622Z,1.90
2023-02-27T02:01:50.521Z,1.45
2023-02-27T02:02:24.926Z,1.60
2023-02-27T02:03:16.550Z,1.63
2023-02-27T02:03:50.574Z,1.88
2023-02-27T02:04:25.862Z,1.58
2023-02-27T02:04:57.418Z,1.80
2023-02-27T02:05:29.298Z,1.88
2023-02-27T02:06:01.720Z,2.03
2023-02-27T02:06:35.256Z,2.25
2023-02-27T02:07:08.320Z,1.98
2023-02-27T02:07:40.508Z,2.22
2023-02-27T02:08:13.920Z,1.85
2023-02-27T02:08:46.475Z,1.58
2023-02-27T02:09:21.442Z,2.75
2023-02-27T02:09:58.436Z,2.33
2023-02-27T02:10:30.278Z,1.98
2023-02-27T02:11:02.034Z,2.90
2023-02-27T02:11:33.408Z,2.35
2023-02-27T02:12:04.854Z,3.00
2023-02-27T02:12:38.078Z,2.63
2023-02-27T02:13:09.736Z,1.63
2023-02-27T02:13:41.725Z,2.25
2023-02-27T02:14:13.113Z,2.97
2023-02-27T02:14:44.663Z,2.28
2023-02-27T02:15:16.083Z,2.30
2023-02-27T02:16:15.980Z,2.75
2023-02-27T02:16:56.470Z,1.98
2023-02-27T02:17:46.058Z,1.80
2023-02-27T02:18:36.153Z,2.83
2023-02-27T02:19:26.081Z,1.52
2023-02-27T02:20:14.512Z,2.85
2023-02-27T02:21:04.077Z,1.85
2023-02-27T02:21:38.237Z,1.65
2023-02-27T02:22:18.686Z,1.00
2023-02-27T02:22:50.004Z,1.67
2023-02-27T02:23:21.432Z,2.10
2023-02-27T02:23:52.765Z,2.27
2023-02-27T02:24:24.071Z,1.95
2023-02-27T02:24:58.163Z,2.47
2023-02-27T02:25:38.731Z,1.70
2023-02-27T02:26:24.792Z,2.05
2023-02-27T02:27:05.131Z,2.15
2023-02-27T02:27:39.516Z,1.83
2023-02-27T02:28:10.820Z,2.15
2023-02-27T02:29:00.731Z,2.83
2023-02-27T02:29:47.133Z,1.70
2023-02-27T02:30:21.441Z,1.30
2023-02-27T02:30:55.588Z,2.30
2023-02-27T02:31:42.116Z,2.10
2023-02-27T02:32:32.171Z,2.58
2023-02-27T02:33:12.660Z,2.00
2023-02-27T02:33:56.391Z,2.08
2023-02-27T02:34:42.996Z,2.60
2023-02-27T02:35:17.124Z,2.83
2023-02-27T02:35:48.448Z,3.58
2023-02-27T02:36:40.234Z,2.55
2023-02-27T02:37:27.247Z,2.28
2023-02-27T02:38:06.566Z,1.90
2023-02-27T02:38:56.787Z,2.03
2023-02-27T02:39:28.108Z,2.63
2023-02-27T02:40:12.493Z,2.08
2023-02-27T02:40:46.545Z,2.25
2023-02-27T02:41:23.131Z,2.50
2023-02-27T02:42:00.463Z,2.83
2023-02-27T02:42:31.770Z,2.42
2023-02-27T02:43:12.358Z,2.58
2023-02-27T02:43:50.523Z,2.08
2023-02-27T02:44:40.603Z,2.22
2023-02-27T02:45:17.023Z,2.13
2023-02-27T02:45:51.975Z,1.92
2023-02-27T02:46:29.475Z,1.87
2023-02-27T02:47:03.583Z,2.58
2023-02-27T02:47:34.915Z,2.20
2023-02-27T02:48:15.685Z,2.25
2023-02-27T02:48:55.857Z,2.22
2023-02-27T02:49:33.672Z,2.72
2023-02-27T02:50:13.493Z,2.53
2023-02-27T02:50:49.472Z,1.30
2023-02-27T02:51:29.474Z,1.85
2023-02-27T02:52:17.946Z,1.80
2023-02-27T02:52:49.250Z,1.80
2023-02-27T02:53:36.126Z,1.60
2023-02-27T02:54:14.426Z,2.58
2023-02-27T02:54:52.530Z,2.25
2023-02-27T02:55:33.351Z,2.00
2023-02-27T02:56:13.083Z,2.20
2023-02-27T02:56:48.638Z,2.40
2023-02-27T02:57:23.758Z,1.67
2023-02-27T02:57:58.072Z,2.60
2023-02-27T02:58:35.909Z,1.75
2023-02-27T02:59:07.271Z,1.70
2023-02-27T02:59:54.675Z,2.70
2023-02-27T03:00:30.060Z,2.80
2023-02-27T03:01:01.367Z,1.80
2023-02-27T03:02:02.106Z,2.25
2023-02-27T03:02:37.081Z,1.83
2023-02-27T03:03:12.502Z,1.98
2023-02-27T03:03:45.764Z,2.38
2023-02-27T03:04:17.108Z,2.05
2023-02-27T03:04:51.350Z,1.70
2023-02-27T03:05:26.206Z,1.75
2023-02-27T03:06:03.635Z,2.33
2023-02-27T03:06:37.680Z,1.60
2023-02-27T03:07:08.989Z,1.85
2023-02-27T03:07:47.591Z,1.80
2023-02-27T03:08:21.022Z,2.55
2023-02-27T03:08:55.344Z,1.90
2023-02-27T03:09:42.541Z,2.10
2023-02-27T03:10:16.315Z,2.70
2023-02-27T03:10:53.899Z,1.88
2023-02-27T03:11:27.927Z,2.13
2023-02-27T03:12:00.947Z,1.90
2023-02-27T03:12:33.569Z,2.10
2023-02-27T03:13:12.142Z,1.90
2023-02-27T03:13:48.480Z,2.05
2023-02-27T03:14:27.737Z,1.80
2023-02-27T03:14:59.051Z,2.20
2023-02-27T03:15:34.713Z,2.20
2023-02-27T03:16:06.140Z,1.77
2023-02-27T03:16:40.373Z,1.80
2023-02-27T03:17:16.702Z,2.20
2023-02-27T03:17:48.017Z,1.50
2023-02-27T03:18:22.809Z,2.10
2023-02-27T03:18:56.713Z,2.35
2023-02-27T03:19:30.931Z,2.38
2023-02-27T03:20:04.729Z,2.20
2023-02-27T03:20:39.307Z,1.75
2023-02-27T03:21:13.386Z,1.98
2023-02-27T03:21:58.900Z,2.60
2023-02-27T03:22:32.315Z,1.98
2023-02-27T03:23:09.177Z,1.65
2023-02-27T03:23:42.514Z,2.40
2023-02-27T03:24:16.901Z,1.05
2023-02-27T03:24:51.352Z,2.08
2023-02-27T03:25:24.889Z,1.73
2023-02-27T03:25:58.280Z,2.13
2023-02-27T03:26:33.606Z,2.08
2023-02-27T03:27:05.549Z,2.13
2023-02-27T03:27:40.460Z,2.00
2023-02-27T03:28:15.265Z,1.83
2023-02-27T03:28:54.278Z,1.77
2023-02-27T03:29:51.983Z,2.50
2023-02-27T03:30:30.946Z,1.90
2023-02-27T03:31:34.713Z,1.20
2023-02-27T03:32:14.742Z,2.13
2023-02-27T03:32:58.412Z,1.77
2023-02-27T03:33:50.706Z,2.35
2023-02-27T03:34:27.634Z,1.90
2023-02-27T03:35:00.016Z,2.55
2023-02-27T03:35:37.200Z,2.00
2023-02-27T03:36:34.689Z,1.65
2023-02-27T03:37:12.012Z,1.90
2023-02-27T03:38:01.258Z,2.05
2023-02-27T03:38:47.722Z,2.22
2023-02-27T03:39:30.229Z,1.80
2023-02-27T03:40:01.573Z,2.13
2023-02-27T03:40:59.012Z,1.95
2023-02-27T03:41:42.488Z,1.60
2023-02-27T03:42:23.098Z,2.25
2023-02-27T03:43:02.298Z,1.92
2023-02-27T03:43:53.869Z,1.92
2023-02-27T03:44:28.305Z,2.30
2023-02-27T03:45:05.775Z,1.45
2023-02-27T03:45:40.248Z,1.77
2023-02-27T03:46:17.029Z,2.38
2023-02-27T03:46:48.425Z,2.20
2023-02-27T03:47:20.028Z,3.10
2023-02-27T03:47:51.483Z,2.15
2023-02-27T03:48:22.944Z,1.92
2023-02-27T03:48:54.276Z,2.10
2023-02-27T03:49:25.695Z,1.80
2023-02-27T03:49:57.215Z,2.30
2023-02-27T03:50:28.612Z,2.40
2023-02-27T03:51:00.020Z,2.40
2023-02-27T03:51:31.894Z,2.08
2023-02-27T03:52:03.287Z,2.37
2023-02-27T03:52:34.674Z,1.65
2023-02-27T03:53:10.647Z,2.40
2023-02-27T03:53:54.576Z,1.40
2023-02-27T03:54:27.631Z,2.55
2023-02-27T03:55:05.117Z,3.00
2023-02-27T03:55:39.037Z,2.42
2023-02-27T03:56:12.211Z,2.53
2023-02-27T03:56:58.996Z,2.42
2023-02-27T03:57:30.712Z,2.58
2023-02-27T03:58:02.197Z,2.33
2023-02-27T03:58:33.794Z,2.53
2023-02-27T03:59:05.418Z,3.08
2023-02-27T03:59:37.595Z,2.43
2023-02-27T04:00:11.057Z,2.55
2023-02-27T04:00:42.605Z,2.30
2023-02-27T04:01:14.369Z,2.65
2023-02-27T04:01:45.920Z,2.07
2023-02-27T04:02:17.340Z,2.22
2023-02-27T04:02:49.955Z,2.60
2023-02-27T04:03:21.393Z,2.00
2023-02-27T04:04:02.539Z,2.55
2023-02-27T04:04:33.941Z,2.65
2023-02-27T04:05:05.427Z,2.63
2023-02-27T04:05:36.854Z,2.33
2023-02-27T04:06:08.248Z,2.00
2023-02-27T04:06:40.163Z,2.25
2023-02-27T04:07:17.532Z,2.90
2023-02-27T04:08:07.798Z,2.20
2023-02-27T04:08:55.871Z,1.90
2023-02-27T04:10:02.499Z,2.55
2023-02-27T04:10:45.719Z,2.03
2023-02-27T04:11:24.959Z,2.13
2023-02-27T04:12:21.624Z,2.67
2023-02-27T04:13:01.475Z,2.33
2023-02-27T04:13:32.804Z,2.03
2023-02-27T04:14:12.319Z,2.05
2023-02-27T04:14:54.425Z,2.00
2023-02-27T04:15:25.792Z,2.55
2023-02-27T04:16:15.957Z,2.30
2023-02-27T04:16:56.654Z,2.75
2023-02-27T04:17:29.580Z,2.08
2023-02-27T04:18:29.574Z,2.25
2023-02-27T04:19:12.676Z,1.83
2023-02-27T04:19:52.322Z,2.13
2023-02-27T04:20:29.885Z,2.08
2023-02-27T04:21:06.878Z,2.00
2023-02-27T04:21:41.875Z,2.17
2023-02-27T04:22:34.212Z,3.05
2023-02-27T04:23:09.883Z,2.17
2023-02-27T04:23:54.880Z,2.00
2023-02-27T04:24:29.292Z,1.98
2023-02-27T04:25:19.418Z,2.60
2023-02-27T04:25:50.738Z,2.22
2023-02-27T04:26:29.342Z,1.85
2023-02-27T04:27:29.809Z,2.08
2023-02-27T04:28:18.279Z,2.50
2023-02-27T04:29:02.357Z,2.13
2023-02-27T04:29:51.304Z,2.27
2023-02-27T04:30:22.718Z,1.92
2023-02-27T04:30:57.840Z,2.47
2023-02-27T04:31:41.821Z,1.73
2023-02-27T04:32:17.541Z,2.17
2023-02-27T04:33:04.354Z,2.40
2023-02-27T04:33:35.660Z,2.05
2023-02-27T04:34:13.741Z,2.13
2023-02-27T04:34:50.878Z,2.75
2023-02-27T04:35:25.248Z,2.13
2023-02-27T04:35:58.488Z,2.15
2023-02-27T04:36:35.260Z,2.20
2023-02-27T04:37:20.939Z,2.40
2023-02-27T04:37:58.449Z,2.58
2023-02-27T04:38:33.641Z,2.80
2023-02-27T04:39:06.526Z,2.33
2023-02-27T04:39:51.553Z,2.50
2023-02-27T04:40:30.169Z,3.70
2023-02-27T04:41:06.042Z,3.08
2023-02-27T04:41:56.086Z,2.75
2023-02-27T04:42:30.634Z,2.40
2023-02-27T04:43:03.364Z,2.72
2023-02-27T04:43:35.760Z,2.67
2023-02-27T04:44:08.349Z,2.10
2023-02-27T04:44:40.224Z,3.08
2023-02-27T04:45:15.274Z,3.25
2023-02-27T04:45:47.822Z,2.75
2023-02-27T04:46:21.290Z,2.92
2023-02-27T04:46:54.104Z,2.55
2023-02-27T04:47:28.025Z,2.85
2023-02-27T04:48:01.697Z,2.40
2023-02-27T04:48:36.854Z,2.80
2023-02-27T04:49:17.834Z,4.18
2023-02-27T04:49:54.274Z,3.00
2023-02-27T04:50:31.413Z,2.80
2023-02-27T04:51:02.731Z,2.80
2023-02-27T04:52:00.478Z,2.88
2023-02-27T04:52:34.261Z,2.40
2023-02-27T04:53:08.594Z,2.78
2023-02-27T04:53:47.618Z,3.03
2023-02-27T04:54:22.824Z,3.40
2023-02-27T04:54:56.429Z,3.13
2023-02-27T04:55:30.208Z,2.45
2023-02-27T04:56:04.128Z,3.35
2023-02-27T04:56:37.514Z,2.38
2023-02-27T04:57:10.783Z,2.83
2023-02-27T04:57:54.029Z,2.88
2023-02-27T04:58:42.891Z,2.50
2023-02-27T04:59:19.090Z,3.40
2023-02-27T04:59:52.360Z,3.30
2023-02-27T05:00:24.730Z,3.55
2023-02-27T05:01:05.491Z,3.25
2023-02-27T05:01:49.170Z,3.05
2023-02-27T05:02:26.725Z,3.25
2023-02-27T05:03:11.218Z,3.00
2023-02-27T05:03:46.110Z,3.60
2023-02-27T05:04:19.812Z,2.85
2023-02-27T05:04:53.980Z,3.38
2023-02-27T05:05:26.628Z,3.47
2023-02-27T05:05:59.156Z,3.63
2023-02-27T05:06:32.396Z,3.17
2023-02-27T05:07:05.581Z,3.20
2023-02-27T05:07:39.895Z,3.53
2023-02-27T05:08:21.815Z,3.10
2023-02-27T05:08:58.908Z,3.45
2023-02-27T05:09:33.405Z,3.80
2023-02-27T05:10:10.142Z,3.95
2023-02-27T05:10:50.811Z,4.25
2023-02-27T05:11:31.295Z,3.70
2023-02-27T05:12:05.620Z,3.55
2023-02-27T05:12:43.483Z,3.42
2023-02-27T05:13:14.808Z,3.20
2023-02-27T05:13:50.912Z,3.50
2023-02-27T05:14:28.334Z,4.00
2023-02-27T05:15:03.119Z,4.00
2023-02-27T05:15:40.702Z,4.28
2023-02-27T05:16:12.096Z,4.32
2023-02-27T05:16:46.619Z,4.00
2023-02-27T05:17:19.612Z,4.50
2023-02-27T05:18:02.141Z,4.03
2023-02-27T05:18:33.584Z,4.55
2023-02-27T05:19:05.560Z,4.20
2023-02-27T05:19:38.684Z,4.60
2023-02-27T05:20:10.857Z,5.63
2023-02-27T05:20:48.422Z,5.53
2023-02-27T05:21:19.729Z,4.43
2023-02-27T05:21:56.132Z,3.45
2023-02-27T05:22:30.476Z,4.20
2023-02-27T05:23:08.053Z,3.67
2023-02-27T05:23:48.602Z,3.80
2023-02-27T05:24:23.990Z,4.35
2023-02-27T05:25:13.890Z,4.00
2023-02-27T05:26:20.630Z,3.97
2023-02-27T05:26:51.974Z,4.35
2023-02-27T05:27:32.288Z,4.78
2023-02-27T05:28:13.569Z,4.35
2023-02-27T05:28:54.063Z,4.20
2023-02-27T05:29:28.243Z,3.97
2023-02-27T05:30:01.866Z,4.05
2023-02-27T05:30:48.556Z,4.10
2023-02-27T05:31:41.626Z,4.97
2023-02-27T05:32:18.021Z,5.45
2023-02-27T05:32:53.401Z,4.75
2023-02-27T05:33:28.578Z,4.72
2023-02-27T05:34:02.793Z,3.78
2023-02-27T05:34:37.699Z,3.72
2023-02-27T05:35:13.401Z,5.28
2023-02-27T05:35:51.097Z,5.22
2023-02-27T05:36:34.544Z,4.50
2023-02-27T05:37:16.649Z,5.00
2023-02-27T05:37:53.039Z,5.38
2023-02-27T05:38:36.398Z,5.43
2023-02-27T05:39:09.379Z,5.13
2023-02-27T05:39:41.719Z,5.82
2023-02-27T05:40:15.282Z,5.28
2023-02-27T05:40:50.065Z,4.95
2023-02-27T05:41:53.936Z,4.55
2023-02-27T05:42:33.712Z,5.22
2023-02-27T05:43:15.087Z,4.55
2023-02-27T05:43:48.861Z,5.80
2023-02-27T05:44:21.701Z,5.20
2023-02-27T05:44:59.385Z,5.50
2023-02-27T05:45:31.586Z,4.53
2023-02-27T05:46:08.669Z,4.80
2023-02-27T05:46:43.430Z,4.75
2023-02-27T05:47:16.871Z,4.53
2023-02-27T05:48:09.228Z,5.03
2023-02-27T05:48:47.495Z,3.77
2023-02-27T05:49:23.217Z,3.97
2023-02-27T05:50:07.516Z,3.67
2023-02-27T05:50:39.757Z,4.55
2023-02-27T05:51:13.505Z,3.90
2023-02-27T05:51:46.760Z,4.35
2023-02-27T05:52:19.979Z,3.92
2023-02-27T05:52:53.108Z,4.05
2023-02-27T05:53:26.823Z,4.30
2023-02-27T05:54:01.548Z,3.67
2023-02-27T05:54:41.650Z,4.28
2023-02-27T05:55:18.703Z,3.50
2023-02-27T05:55:52.446Z,4.22
2023-02-27T05:56:25.212Z,3.13
2023-02-27T05:56:58.342Z,3.47
2023-02-27T05:57:33.824Z,3.40
2023-02-27T05:58:05.156Z,3.45
2023-02-27T05:58:41.984Z,4.10
2023-02-27T05:59:25.596Z,3.72
2023-02-27T06:00:02.580Z,4.20
2023-02-27T06:00:36.916Z,3.78
2023-02-27T06:01:09.606Z,3.80
2023-02-27T06:01:41.097Z,3.75
2023-02-27T06:02:12.644Z,4.10
2023-02-27T06:02:44.872Z,4.25
2023-02-27T06:03:16.342Z,3.85
2023-02-27T06:03:47.801Z,3.17
2023-02-27T06:04:19.348Z,4.30
2023-02-27T06:04:50.732Z,4.07
2023-02-27T06:05:22.856Z,4.20
2023-02-27T06:05:55.328Z,4.32
2023-02-27T06:06:27.024Z,3.80
2023-02-27T06:06:58.935Z,4.25
2023-02-27T06:07:31.283Z,4.10
2023-02-27T06:08:02.613Z,3.47
2023-02-27T06:08:34.797Z,4.63
2023-02-27T06:09:06.183Z,4.05
2023-02-27T06:09:37.571Z,3.65
2023-02-27T06:10:11.232Z,4.05
2023-02-27T06:10:42.579Z,3.83
2023-02-27T06:11:14.084Z,3.70
2023-02-27T06:11:45.438Z,4.95
2023-02-27T06:12:16.827Z,3.78
2023-02-27T06:12:48.399Z,4.53
2023-02-27T06:13:19.742Z,4.47
2023-02-27T06:13:51.094Z,4.25
2023-02-27T06:14:22.483Z,5.28
2023-02-27T06:14:53.822Z,4.57
2023-02-27T06:15:25.264Z,4.43
2023-02-27T06:15:56.624Z,4.80
2023-02-27T06:16:28.274Z,4.35
2023-02-27T06:16:59.760Z,4.97
2023-02-27T06:17:31.115Z,5.03
2023-02-27T06:18:02.443Z,5.07
2023-02-27T06:18:33.777Z,5.45
2023-02-27T06:19:05.702Z,5.35
2023-02-27T06:19:37.025Z,5.35
2023-02-27T06:20:08.960Z,4.97
2023-02-27T06:20:40.842Z,5.07
2023-02-27T06:21:13.077Z,5.25
2023-02-27T06:21:44.763Z,5.30
2023-02-27T06:22:16.091Z,5.28
2023-02-27T06:22:47.441Z,4.97
2023-02-27T06:23:18.801Z,5.50
2023-02-27T06:23:50.076Z,4.55
2023-02-27T06:24:22.250Z,4.80
2023-02-27T06:24:53.605Z,4.40
2023-02-27T06:25:24.929Z,5.43
2023-02-27T06:25:56.266Z,5.78
2023-02-27T06:26:27.796Z,5.10
2023-02-27T06:26:59.467Z,5.13
2023-02-27T06:27:30.840Z,4.70
2023-02-27T06:28:02.167Z,5.20
2023-02-27T06:28:33.635Z,4.88
2023-02-27T06:29:05.004Z,6.07
2023-02-27T06:29:36.357Z,4.60
2023-02-27T06:30:07.962Z,5.63
2023-02-27T06:30:39.351Z,5.90
2023-02-27T06:31:10.731Z,5.70
2023-02-27T06:31:42.108Z,5.25
2023-02-27T06:32:13.513Z,5.32
2023-02-27T06:32:44.851Z,5.40
2023-02-27T06:33:16.204Z,6.30
2023-02-27T06:33:47.560Z,5.72
2023-02-27T06:34:19.002Z,5.82
2023-02-27T06:34:50.328Z,5.72
2023-02-27T06:35:21.797Z,5.65
2023-02-27T06:35:53.303Z,5.63
2023-02-27T06:36:24.784Z,5.90
2023-02-27T06:36:56.165Z,6.55
2023-02-27T06:37:27.517Z,5.82
2023-02-27T06:37:58.943Z,5.82
2023-02-27T06:38:30.293Z,6.97
2023-02-27T06:39:01.626Z,5.78
2023-02-27T06:39:32.956Z,6.00
2023-02-27T06:40:04.848Z,5.57
2023-02-27T06:40:36.181Z,6.40
2023-02-27T06:41:07.541Z,6.47
2023-02-27T06:41:38.918Z,5.53
2023-02-27T06:42:10.269Z,5.72
2023-02-27T06:42:42.191Z,5.28
2023-02-27T06:43:13.547Z,5.97
2023-02-27T06:43:44.878Z,6.07
2023-02-27T06:44:17.954Z,5.70
2023-02-27T06:44:50.588Z,5.90
2023-02-27T06:45:21.910Z,5.53
2023-02-27T06:45:53.830Z,5.60
2023-02-27T06:46:25.450Z,6.00
2023-02-27T06:46:57.028Z,5.97
2023-02-27T06:47:28.349Z,5.70
2023-02-27T06:47:59.708Z,5.93
2023-02-27T06:48:31.090Z,6.05
2023-02-27T06:49:02.523Z,5.82
2023-02-27T06:49:33.856Z,5.93
2023-02-27T06:50:05.684Z,5.13
2023-02-27T06:50:37.042Z,6.33
2023-02-27T06:51:08.390Z,6.53
2023-02-27T06:51:39.716Z,6.13
2023-02-27T06:52:11.037Z,5.80
2023-02-27T06:52:42.398Z,5.95
2023-02-27T06:53:13.762Z,7.05
2023-02-27T06:53:45.112Z,6.85
2023-02-27T06:54:16.451Z,5.90
2023-02-27T06:54:47.778Z,6.20
2023-02-27T06:55:19.174Z,7.03
2023-02-27T06:55:50.536Z,6.70
2023-02-27T06:56:21.899Z,6.03
2023-02-27T06:56:53.248Z,7.10
2023-02-27T06:57:24.795Z,6.53
2023-02-27T06:57:56.180Z,6.65
2023-02-27T06:58:27.568Z,6.03
2023-02-27T06:58:59.610Z,6.55
2023-02-27T06:59:31.055Z,5.97
2023-02-27T07:00:02.574Z,5.75
2023-02-27T07:00:33.906Z,6.90
2023-02-27T07:01:05.339Z,6.05
2023-02-27T07:01:36.722Z,6.38
2023-02-27T07:02:08.125Z,6.45
2023-02-27T07:02:39.554Z,4.70
2023-02-27T07:03:12.118Z,6.10
2023-02-27T07:03:43.500Z,5.40
2023-02-27T07:04:15.117Z,5.32
2023-02-27T07:04:46.587Z,5.43
2023-02-27T07:05:17.969Z,5.22
2023-02-27T07:05:49.677Z,5.55
2023-02-27T07:06:21.055Z,5.72
2023-02-27T07:07:35.760Z,4.53
2023-02-27T07:08:03.973Z,4.78
2023-02-27T07:08:35.300Z,4.80
2023-02-27T07:09:07.241Z,4.38
2023-02-27T07:09:38.657Z,4.68
2023-02-27T07:10:11.866Z,4.30
2023-02-27T07:10:44.008Z,4.80
2023-02-27T07:11:15.379Z,5.45
2023-02-27T07:11:46.748Z,4.95
2023-02-27T07:12:18.097Z,5.00
2023-02-27T07:12:49.439Z,6.13
2023-02-27T07:13:20.846Z,4.88
2023-02-27T07:13:52.203Z,5.38
2023-02-27T07:14:23.539Z,5.55
2023-02-27T07:14:54.863Z,5.85
2023-02-27T07:15:26.197Z,5.82
2023-02-27T07:15:57.569Z,6.07
2023-02-27T07:16:29.180Z,6.65
2023-02-27T07:17:00.669Z,5.20
2023-02-27T07:17:32.118Z,5.15
2023-02-27T07:18:03.510Z,5.18
2023-02-27T07:18:34.836Z,5.77
2023-02-27T07:19:08.446Z,4.97
2023-02-27T07:19:40.055Z,4.40
2023-02-27T07:20:11.818Z,4.60
2023-02-27T07:20:43.144Z,5.20
2023-02-27T07:21:14.582Z,5.43
2023-02-27T07:21:45.916Z,5.15
2023-02-27T07:22:17.270Z,4.70
2023-02-27T07:22:48.623Z,4.95
2023-02-27T07:23:19.954Z,5.00
2023-02-27T07:23:52.209Z,5.13
2023-02-27T07:24:23.808Z,4.53
2023-02-27T07:24:55.148Z,4.00
2023-02-27T07:25:26.463Z,4.28
2023-02-27T07:25:57.861Z,4.38
2023-02-27T07:26:29.535Z,4.47
2023-02-27T07:27:01.167Z,4.72
2023-02-27T07:27:32.485Z,5.20
2023-02-27T07:28:04.034Z,4.53
2023-02-27T07:28:35.458Z,4.70
2023-02-27T07:29:06.934Z,4.20
2023-02-27T07:29:38.293Z,3.58
2023-02-27T07:30:10.005Z,3.60
2023-02-27T07:30:41.486Z,4.50
2023-02-27T07:31:12.860Z,3.70
2023-02-27T07:31:44.426Z,3.53
2023-02-27T07:32:15.905Z,2.72
2023-02-27T07:32:47.290Z,3.90
2023-02-27T07:33:18.636Z,3.47
2023-02-27T07:33:49.975Z,4.25
2023-02-27T07:34:21.376Z,3.38
2023-02-27T07:34:52.885Z,4.30
2023-02-27T07:35:24.344Z,3.40
2023-02-27T07:35:55.756Z,2.83
2023-02-27T07:36:27.440Z,3.53
2023-02-27T07:36:58.930Z,3.78
2023-02-27T07:37:30.279Z,3.13
2023-02-27T07:38:01.608Z,3.47
2023-02-27T07:38:32.958Z,3.38
2023-02-27T07:39:04.824Z,3.17
2023-02-27T07:39:36.267Z,3.50
2023-02-27T07:40:07.875Z,3.38
2023-02-27T07:40:39.208Z,3.38